sensor_id;sensor_type;location;lat;lon;timestamp;P1;durP1;ratioP1;P2;durP2;ratioP2
21492;SDS011;10908;50.690;4.400;2022-11-24T00:01:59;17.83;;;2.78;;
21492;SDS011;10908;50.690;4.400;2022-11-24T00:04:25;17.38;;;3.03;;
21492;SDS011;10908;50.690;4.400;2022-11-24T00:06:50;16.30;;;2.65;;
21492;SDS011;10908;50.690;4.400;2022-11-24T00:09:17;18.73;;;2.40;;
21492;SDS011;10908;50.690;4.400;2022-11-24T00:11:43;21.60;;;2.85;;
21492;SDS011;10908;50.690;4.400;2022-11-24T00:14:09;19.33;;;3.25;;
21492;SDS011;10908;50.690;4.400;2022-11-24T00:16:35;22.95;;;2.92;;
21492;SDS011;10908;50.690;4.400;2022-11-24T00:19:02;25.30;;;3.75;;
21492;SDS011;10908;50.690;4.400;2022-11-24T00:21:35;19.58;;;2.92;;
21492;SDS011;10908;50.690;4.400;2022-11-24T00:24:01;18.13;;;2.70;;
21492;SDS011;10908;50.690;4.400;2022-11-24T00:26:28;21.48;;;3.10;;
21492;SDS011;10908;50.690;4.400;2022-11-24T00:28:57;15.15;;;2.70;;
21492;SDS011;10908;50.690;4.400;2022-11-24T00:31:25;16.55;;;2.97;;
21492;SDS011;10908;50.690;4.400;2022-11-24T00:33:53;19.38;;;2.90;;
21492;SDS011;10908;50.690;4.400;2022-11-24T00:36:21;25.92;;;3.25;;
21492;SDS011;10908;50.690;4.400;2022-11-24T00:38:52;28.77;;;4.03;;
21492;SDS011;10908;50.690;4.400;2022-11-24T00:41:23;24.85;;;3.30;;
21492;SDS011;10908;50.690;4.400;2022-11-24T00:43:49;20.63;;;3.25;;
21492;SDS011;10908;50.690;4.400;2022-11-24T00:46:15;17.83;;;3.08;;
21492;SDS011;10908;50.690;4.400;2022-11-24T00:48:41;19.75;;;3.00;;
21492;SDS011;10908;50.690;4.400;2022-11-24T00:51:08;18.83;;;3.25;;
21492;SDS011;10908;50.690;4.400;2022-11-24T00:53:35;22.33;;;3.40;;
21492;SDS011;10908;50.690;4.400;2022-11-24T00:56:01;28.45;;;3.40;;
21492;SDS011;10908;50.690;4.400;2022-11-24T00:58:30;27.23;;;3.15;;
21492;SDS011;10908;50.690;4.400;2022-11-24T01:01:03;18.40;;;3.00;;
21492;SDS011;10908;50.690;4.400;2022-11-24T01:03:35;21.77;;;2.90;;
21492;SDS011;10908;50.690;4.400;2022-11-24T01:06:08;24.10;;;3.05;;
21492;SDS011;10908;50.690;4.400;2022-11-24T01:08:36;25.00;;;3.20;;
21492;SDS011;10908;50.690;4.400;2022-11-24T01:11:10;21.38;;;3.15;;
21492;SDS011;10908;50.690;4.400;2022-11-24T01:13:44;26.98;;;3.42;;
21492;SDS011;10908;50.690;4.400;2022-11-24T01:18:45;20.58;;;3.25;;
21492;SDS011;10908;50.690;4.400;2022-11-24T01:21:12;19.55;;;3.17;;
21492;SDS011;10908;50.690;4.400;2022-11-24T01:23:38;31.55;;;4.13;;
21492;SDS011;10908;50.690;4.400;2022-11-24T01:26:05;18.98;;;3.60;;
21492;SDS011;10908;50.690;4.400;2022-11-24T01:28:32;23.98;;;3.55;;
21492;SDS011;10908;50.690;4.400;2022-11-24T01:30:58;22.13;;;3.50;;
21492;SDS011;10908;50.690;4.400;2022-11-24T01:33:25;21.98;;;2.92;;
21492;SDS011;10908;50.690;4.400;2022-11-24T01:35:51;25.98;;;3.50;;
21492;SDS011;10908;50.690;4.400;2022-11-24T01:38:16;31.45;;;3.72;;
21492;SDS011;10908;50.690;4.400;2022-11-24T01:40:42;15.60;;;2.88;;
21492;SDS011;10908;50.690;4.400;2022-11-24T01:43:15;24.80;;;3.50;;
21492;SDS011;10908;50.690;4.400;2022-11-24T01:45:45;23.90;;;3.30;;
21492;SDS011;10908;50.690;4.400;2022-11-24T01:50:52;25.10;;;3.50;;
21492;SDS011;10908;50.690;4.400;2022-11-24T01:53:24;27.73;;;3.50;;
21492;SDS011;10908;50.690;4.400;2022-11-24T01:55:50;22.10;;;3.30;;
21492;SDS011;10908;50.690;4.400;2022-11-24T01:58:21;27.23;;;3.38;;
21492;SDS011;10908;50.690;4.400;2022-11-24T02:00:51;28.17;;;3.63;;
21492;SDS011;10908;50.690;4.400;2022-11-24T02:03:26;27.23;;;3.22;;
21492;SDS011;10908;50.690;4.400;2022-11-24T02:05:59;21.95;;;3.80;;
21492;SDS011;10908;50.690;4.400;2022-11-24T02:11:03;33.67;;;3.95;;
21492;SDS011;10908;50.690;4.400;2022-11-24T02:13:30;23.58;;;3.08;;
21492;SDS011;10908;50.690;4.400;2022-11-24T02:15:59;22.75;;;3.33;;
21492;SDS011;10908;50.690;4.400;2022-11-24T02:18:26;21.63;;;3.08;;
21492;SDS011;10908;50.690;4.400;2022-11-24T02:20:51;28.65;;;3.95;;
21492;SDS011;10908;50.690;4.400;2022-11-24T02:23:26;28.70;;;3.65;;
21492;SDS011;10908;50.690;4.400;2022-11-24T02:29:01;28.90;;;3.30;;
21492;SDS011;10908;50.690;4.400;2022-11-24T02:31:27;26.45;;;3.53;;
21492;SDS011;10908;50.690;4.400;2022-11-24T02:33:53;27.67;;;3.60;;
21492;SDS011;10908;50.690;4.400;2022-11-24T02:36:20;23.58;;;3.20;;
21492;SDS011;10908;50.690;4.400;2022-11-24T02:38:45;27.27;;;3.40;;
21492;SDS011;10908;50.690;4.400;2022-11-24T02:41:12;25.88;;;3.42;;
21492;SDS011;10908;50.690;4.400;2022-11-24T02:43:43;16.17;;;3.10;;
21492;SDS011;10908;50.690;4.400;2022-11-24T02:46:20;28.10;;;4.07;;
21492;SDS011;10908;50.690;4.400;2022-11-24T02:48:45;25.73;;;3.20;;
21492;SDS011;10908;50.690;4.400;2022-11-24T02:51:11;20.77;;;3.60;;
21492;SDS011;10908;50.690;4.400;2022-11-24T02:53:37;22.35;;;3.40;;
21492;SDS011;10908;50.690;4.400;2022-11-24T02:56:02;25.45;;;3.63;;
21492;SDS011;10908;50.690;4.400;2022-11-24T02:58:28;26.48;;;4.25;;
21492;SDS011;10908;50.690;4.400;2022-11-24T03:00:54;20.33;;;3.10;;
21492;SDS011;10908;50.690;4.400;2022-11-24T03:03:21;26.35;;;3.25;;
21492;SDS011;10908;50.690;4.400;2022-11-24T03:05:47;22.48;;;3.60;;
21492;SDS011;10908;50.690;4.400;2022-11-24T03:08:13;29.67;;;3.65;;
21492;SDS011;10908;50.690;4.400;2022-11-24T03:10:39;19.63;;;3.55;;
21492;SDS011;10908;50.690;4.400;2022-11-24T03:13:04;30.52;;;3.50;;
21492;SDS011;10908;50.690;4.400;2022-11-24T03:15:30;21.65;;;3.40;;
21492;SDS011;10908;50.690;4.400;2022-11-24T03:17:55;19.23;;;2.90;;
21492;SDS011;10908;50.690;4.400;2022-11-24T03:20:21;18.00;;;2.60;;
21492;SDS011;10908;50.690;4.400;2022-11-24T03:22:47;20.55;;;3.15;;
21492;SDS011;10908;50.690;4.400;2022-11-24T03:25:12;21.27;;;3.15;;
21492;SDS011;10908;50.690;4.400;2022-11-24T03:27:38;16.83;;;2.55;;
21492;SDS011;10908;50.690;4.400;2022-11-24T03:30:04;16.13;;;2.25;;
21492;SDS011;10908;50.690;4.400;2022-11-24T03:32:30;19.00;;;2.30;;
21492;SDS011;10908;50.690;4.400;2022-11-24T03:34:56;11.20;;;2.08;;
21492;SDS011;10908;50.690;4.400;2022-11-24T03:37:21;18.30;;;2.35;;
21492;SDS011;10908;50.690;4.400;2022-11-24T03:39:47;12.93;;;1.90;;
21492;SDS011;10908;50.690;4.400;2022-11-24T03:42:13;17.75;;;2.03;;
21492;SDS011;10908;50.690;4.400;2022-11-24T03:44:39;15.43;;;1.90;;
21492;SDS011;10908;50.690;4.400;2022-11-24T03:47:04;7.68;;;1.60;;
21492;SDS011;10908;50.690;4.400;2022-11-24T03:49:30;13.45;;;1.98;;
21492;SDS011;10908;50.690;4.400;2022-11-24T03:51:56;14.68;;;2.17;;
21492;SDS011;10908;50.690;4.400;2022-11-24T03:54:21;9.43;;;1.75;;
21492;SDS011;10908;50.690;4.400;2022-11-24T03:56:47;11.15;;;1.98;;
21492;SDS011;10908;50.690;4.400;2022-11-24T03:59:13;10.10;;;1.67;;
21492;SDS011;10908;50.690;4.400;2022-11-24T04:01:38;14.23;;;1.88;;
21492;SDS011;10908;50.690;4.400;2022-11-24T04:04:04;16.13;;;1.90;;
21492;SDS011;10908;50.690;4.400;2022-11-24T04:06:30;12.13;;;1.48;;
21492;SDS011;10908;50.690;4.400;2022-11-24T04:08:55;9.25;;;1.50;;
21492;SDS011;10908;50.690;4.400;2022-11-24T04:11:21;9.00;;;1.23;;
21492;SDS011;10908;50.690;4.400;2022-11-24T04:14:05;8.77;;;1.27;;
21492;SDS011;10908;50.690;4.400;2022-11-24T04:16:31;6.95;;;1.08;;
21492;SDS011;10908;50.690;4.400;2022-11-24T04:18:56;11.25;;;0.90;;
21492;SDS011;10908;50.690;4.400;2022-11-24T04:21:22;6.75;;;0.85;;
21492;SDS011;10908;50.690;4.400;2022-11-24T04:23:47;9.63;;;1.15;;
21492;SDS011;10908;50.690;4.400;2022-11-24T04:26:13;7.63;;;1.00;;
21492;SDS011;10908;50.690;4.400;2022-11-24T04:28:39;7.75;;;1.10;;
21492;SDS011;10908;50.690;4.400;2022-11-24T04:31:05;8.48;;;0.70;;
21492;SDS011;10908;50.690;4.400;2022-11-24T04:33:30;7.32;;;0.98;;
21492;SDS011;10908;50.690;4.400;2022-11-24T04:35:56;8.50;;;1.10;;
21492;SDS011;10908;50.690;4.400;2022-11-24T04:38:22;2.80;;;0.60;;
21492;SDS011;10908;50.690;4.400;2022-11-24T04:40:47;6.07;;;0.80;;
21492;SDS011;10908;50.690;4.400;2022-11-24T04:43:13;5.90;;;0.70;;
21492;SDS011;10908;50.690;4.400;2022-11-24T04:45:41;4.05;;;0.73;;
21492;SDS011;10908;50.690;4.400;2022-11-24T04:48:07;6.57;;;1.10;;
21492;SDS011;10908;50.690;4.400;2022-11-24T04:50:32;5.13;;;0.75;;
21492;SDS011;10908;50.690;4.400;2022-11-24T04:52:58;5.50;;;0.80;;
21492;SDS011;10908;50.690;4.400;2022-11-24T04:55:23;3.38;;;0.50;;
21492;SDS011;10908;50.690;4.400;2022-11-24T04:57:49;4.07;;;0.60;;
21492;SDS011;10908;50.690;4.400;2022-11-24T05:00:15;3.78;;;0.47;;
21492;SDS011;10908;50.690;4.400;2022-11-24T05:02:41;4.20;;;0.65;;
21492;SDS011;10908;50.690;4.400;2022-11-24T05:05:06;3.58;;;0.63;;
21492;SDS011;10908;50.690;4.400;2022-11-24T05:07:32;4.55;;;0.63;;
21492;SDS011;10908;50.690;4.400;2022-11-24T05:09:58;3.88;;;0.50;;
21492;SDS011;10908;50.690;4.400;2022-11-24T05:12:43;4.38;;;0.77;;
21492;SDS011;10908;50.690;4.400;2022-11-24T05:15:09;5.32;;;0.60;;
21492;SDS011;10908;50.690;4.400;2022-11-24T05:17:35;9.02;;;0.73;;
21492;SDS011;10908;50.690;4.400;2022-11-24T05:20:03;5.22;;;1.00;;
21492;SDS011;10908;50.690;4.400;2022-11-24T05:22:30;4.03;;;1.00;;
21492;SDS011;10908;50.690;4.400;2022-11-24T05:24:55;4.57;;;1.00;;
21492;SDS011;10908;50.690;4.400;2022-11-24T05:27:21;5.10;;;1.10;;
21492;SDS011;10908;50.690;4.400;2022-11-24T05:29:47;10.50;;;1.45;;
21492;SDS011;10908;50.690;4.400;2022-11-24T05:32:13;8.00;;;1.27;;
21492;SDS011;10908;50.690;4.400;2022-11-24T05:34:38;7.78;;;1.33;;
21492;SDS011;10908;50.690;4.400;2022-11-24T05:37:04;10.38;;;1.63;;
21492;SDS011;10908;50.690;4.400;2022-11-24T05:39:33;12.40;;;1.75;;
21492;SDS011;10908;50.690;4.400;2022-11-24T05:42:00;10.60;;;1.70;;
21492;SDS011;10908;50.690;4.400;2022-11-24T05:44:47;13.18;;;1.80;;
21492;SDS011;10908;50.690;4.400;2022-11-24T05:47:13;13.35;;;1.83;;
21492;SDS011;10908;50.690;4.400;2022-11-24T05:49:38;13.30;;;1.73;;
21492;SDS011;10908;50.690;4.400;2022-11-24T05:52:04;12.35;;;1.80;;
21492;SDS011;10908;50.690;4.400;2022-11-24T05:54:30;14.00;;;1.90;;
21492;SDS011;10908;50.690;4.400;2022-11-24T05:56:55;14.52;;;2.00;;
21492;SDS011;10908;50.690;4.400;2022-11-24T05:59:21;12.75;;;1.73;;
21492;SDS011;10908;50.690;4.400;2022-11-24T06:01:46;14.98;;;2.05;;
21492;SDS011;10908;50.690;4.400;2022-11-24T06:04:12;14.20;;;1.60;;
21492;SDS011;10908;50.690;4.400;2022-11-24T06:06:38;13.68;;;1.65;;
21492;SDS011;10908;50.690;4.400;2022-11-24T06:09:03;16.27;;;2.10;;
21492;SDS011;10908;50.690;4.400;2022-11-24T06:11:29;15.10;;;2.13;;
21492;SDS011;10908;50.690;4.400;2022-11-24T06:13:55;10.85;;;2.00;;
21492;SDS011;10908;50.690;4.400;2022-11-24T06:16:21;13.98;;;1.80;;
21492;SDS011;10908;50.690;4.400;2022-11-24T06:18:46;11.32;;;1.67;;
21492;SDS011;10908;50.690;4.400;2022-11-24T06:21:12;9.20;;;1.35;;
21492;SDS011;10908;50.690;4.400;2022-11-24T06:23:38;12.88;;;1.88;;
21492;SDS011;10908;50.690;4.400;2022-11-24T06:26:04;15.18;;;2.03;;
21492;SDS011;10908;50.690;4.400;2022-11-24T06:28:30;11.65;;;1.95;;
21492;SDS011;10908;50.690;4.400;2022-11-24T06:30:59;11.55;;;1.90;;
21492;SDS011;10908;50.690;4.400;2022-11-24T06:33:32;19.50;;;2.08;;
21492;SDS011;10908;50.690;4.400;2022-11-24T06:35:59;12.82;;;1.58;;
21492;SDS011;10908;50.690;4.400;2022-11-24T06:38:26;13.48;;;1.58;;
21492;SDS011;10908;50.690;4.400;2022-11-24T06:40:59;7.78;;;1.25;;
21492;SDS011;10908;50.690;4.400;2022-11-24T06:43:29;7.70;;;1.45;;
21492;SDS011;10908;50.690;4.400;2022-11-24T06:45:55;13.77;;;1.90;;
21492;SDS011;10908;50.690;4.400;2022-11-24T06:48:21;12.88;;;1.85;;
21492;SDS011;10908;50.690;4.400;2022-11-24T06:50:47;13.55;;;1.60;;
21492;SDS011;10908;50.690;4.400;2022-11-24T06:53:13;9.18;;;1.63;;
21492;SDS011;10908;50.690;4.400;2022-11-24T06:55:39;13.65;;;1.73;;
21492;SDS011;10908;50.690;4.400;2022-11-24T06:58:05;10.27;;;1.33;;
21492;SDS011;10908;50.690;4.400;2022-11-24T07:00:31;11.57;;;1.73;;
21492;SDS011;10908;50.690;4.400;2022-11-24T07:02:57;11.40;;;1.45;;
21492;SDS011;10908;50.690;4.400;2022-11-24T07:05:23;13.75;;;1.80;;
21492;SDS011;10908;50.690;4.400;2022-11-24T07:07:49;7.78;;;1.30;;
21492;SDS011;10908;50.690;4.400;2022-11-24T07:10:15;10.45;;;1.42;;
21492;SDS011;10908;50.690;4.400;2022-11-24T07:12:41;10.23;;;1.92;;
21492;SDS011;10908;50.690;4.400;2022-11-24T07:15:06;14.20;;;1.45;;
21492;SDS011;10908;50.690;4.400;2022-11-24T07:17:36;9.50;;;1.70;;
21492;SDS011;10908;50.690;4.400;2022-11-24T07:20:04;9.30;;;1.75;;
21492;SDS011;10908;50.690;4.400;2022-11-24T07:22:31;11.88;;;1.45;;
21492;SDS011;10908;50.690;4.400;2022-11-24T07:24:56;15.02;;;1.80;;
21492;SDS011;10908;50.690;4.400;2022-11-24T07:27:22;13.55;;;1.40;;
21492;SDS011;10908;50.690;4.400;2022-11-24T07:29:48;11.15;;;1.50;;
21492;SDS011;10908;50.690;4.400;2022-11-24T07:32:14;9.88;;;1.70;;
21492;SDS011;10908;50.690;4.400;2022-11-24T07:34:40;9.60;;;1.35;;
21492;SDS011;10908;50.690;4.400;2022-11-24T07:37:05;9.70;;;1.40;;
21492;SDS011;10908;50.690;4.400;2022-11-24T07:39:31;12.98;;;2.13;;
21492;SDS011;10908;50.690;4.400;2022-11-24T07:41:57;11.15;;;1.45;;
21492;SDS011;10908;50.690;4.400;2022-11-24T07:44:24;11.18;;;1.77;;
21492;SDS011;10908;50.690;4.400;2022-11-24T07:46:50;12.00;;;1.95;;
21492;SDS011;10908;50.690;4.400;2022-11-24T07:49:16;9.60;;;1.75;;
21492;SDS011;10908;50.690;4.400;2022-11-24T07:51:42;11.60;;;1.58;;
21492;SDS011;10908;50.690;4.400;2022-11-24T07:54:08;10.45;;;1.67;;
21492;SDS011;10908;50.690;4.400;2022-11-24T07:56:33;11.52;;;1.70;;
21492;SDS011;10908;50.690;4.400;2022-11-24T07:58:59;9.27;;;1.70;;
21492;SDS011;10908;50.690;4.400;2022-11-24T08:01:25;11.35;;;1.67;;
21492;SDS011;10908;50.690;4.400;2022-11-24T08:03:51;11.68;;;1.50;;
21492;SDS011;10908;50.690;4.400;2022-11-24T08:06:16;10.80;;;1.88;;
21492;SDS011;10908;50.690;4.400;2022-11-24T08:08:42;16.98;;;2.17;;
21492;SDS011;10908;50.690;4.400;2022-11-24T08:11:10;13.95;;;1.98;;
21492;SDS011;10908;50.690;4.400;2022-11-24T08:13:38;12.15;;;2.05;;
21492;SDS011;10908;50.690;4.400;2022-11-24T08:16:04;13.05;;;1.42;;
21492;SDS011;10908;50.690;4.400;2022-11-24T08:18:31;11.02;;;1.52;;
21492;SDS011;10908;50.690;4.400;2022-11-24T08:20:57;12.75;;;1.80;;
21492;SDS011;10908;50.690;4.400;2022-11-24T08:23:23;6.55;;;1.50;;
21492;SDS011;10908;50.690;4.400;2022-11-24T08:25:49;9.43;;;1.70;;
21492;SDS011;10908;50.690;4.400;2022-11-24T08:28:15;13.98;;;1.83;;
21492;SDS011;10908;50.690;4.400;2022-11-24T08:30:41;9.02;;;1.33;;
21492;SDS011;10908;50.690;4.400;2022-11-24T08:33:06;11.88;;;1.73;;
21492;SDS011;10908;50.690;4.400;2022-11-24T08:35:36;13.00;;;1.85;;
21492;SDS011;10908;50.690;4.400;2022-11-24T08:38:02;9.60;;;1.67;;
21492;SDS011;10908;50.690;4.400;2022-11-24T08:40:28;14.63;;;1.90;;
21492;SDS011;10908;50.690;4.400;2022-11-24T08:42:57;13.55;;;1.98;;
21492;SDS011;10908;50.690;4.400;2022-11-24T08:45:23;10.70;;;1.73;;
21492;SDS011;10908;50.690;4.400;2022-11-24T08:47:53;14.85;;;1.77;;
21492;SDS011;10908;50.690;4.400;2022-11-24T08:50:20;10.30;;;1.80;;
21492;SDS011;10908;50.690;4.400;2022-11-24T08:52:46;13.50;;;1.85;;
21492;SDS011;10908;50.690;4.400;2022-11-24T08:55:12;8.23;;;1.50;;
21492;SDS011;10908;50.690;4.400;2022-11-24T08:57:37;9.93;;;1.95;;
21492;SDS011;10908;50.690;4.400;2022-11-24T09:00:03;11.63;;;1.98;;
21492;SDS011;10908;50.690;4.400;2022-11-24T09:02:29;12.25;;;2.10;;
21492;SDS011;10908;50.690;4.400;2022-11-24T09:04:55;10.57;;;1.50;;
21492;SDS011;10908;50.690;4.400;2022-11-24T09:07:21;12.38;;;1.80;;
21492;SDS011;10908;50.690;4.400;2022-11-24T09:09:46;11.82;;;1.88;;
21492;SDS011;10908;50.690;4.400;2022-11-24T09:12:12;11.90;;;1.60;;
21492;SDS011;10908;50.690;4.400;2022-11-24T09:14:38;13.93;;;1.88;;
21492;SDS011;10908;50.690;4.400;2022-11-24T09:17:03;12.60;;;2.10;;
21492;SDS011;10908;50.690;4.400;2022-11-24T09:19:29;16.85;;;1.65;;
21492;SDS011;10908;50.690;4.400;2022-11-24T09:21:55;11.40;;;1.80;;
21492;SDS011;10908;50.690;4.400;2022-11-24T09:24:20;9.57;;;1.90;;
21492;SDS011;10908;50.690;4.400;2022-11-24T09:26:46;10.60;;;1.40;;
21492;SDS011;10908;50.690;4.400;2022-11-24T09:29:11;14.65;;;1.58;;
21492;SDS011;10908;50.690;4.400;2022-11-24T09:31:37;13.40;;;1.90;;
21492;SDS011;10908;50.690;4.400;2022-11-24T09:34:04;10.98;;;1.50;;
21492;SDS011;10908;50.690;4.400;2022-11-24T09:36:31;10.85;;;1.65;;
21492;SDS011;10908;50.690;4.400;2022-11-24T09:38:58;13.65;;;2.00;;
21492;SDS011;10908;50.690;4.400;2022-11-24T09:47:00;14.52;;;1.90;;
21492;SDS011;10908;50.690;4.400;2022-11-24T09:52:25;14.10;;;2.15;;
21492;SDS011;10908;50.690;4.400;2022-11-24T09:55:21;13.32;;;1.95;;
21492;SDS011;10908;50.690;4.400;2022-11-24T09:58:10;10.75;;;1.67;;
21492;SDS011;10908;50.690;4.400;2022-11-24T10:00:42;14.93;;;2.00;;
21492;SDS011;10908;50.690;4.400;2022-11-24T10:03:14;12.75;;;1.73;;
21492;SDS011;10908;50.690;4.400;2022-11-24T10:05:43;10.82;;;1.70;;
21492;SDS011;10908;50.690;4.400;2022-11-24T10:10:54;15.35;;;2.40;;
21492;SDS011;10908;50.690;4.400;2022-11-24T10:15:59;13.35;;;1.88;;
21492;SDS011;10908;50.690;4.400;2022-11-24T10:29:09;15.13;;;1.98;;
21492;SDS011;10908;50.690;4.400;2022-11-24T10:31:55;10.15;;;1.70;;
21492;SDS011;10908;50.690;4.400;2022-11-24T10:34:36;18.75;;;2.35;;
21492;SDS011;10908;50.690;4.400;2022-11-24T10:42:29;12.38;;;1.98;;
21492;SDS011;10908;50.690;4.400;2022-11-24T10:45:02;13.98;;;2.00;;
21492;SDS011;10908;50.690;4.400;2022-11-24T10:47:38;16.38;;;2.03;;
21492;SDS011;10908;50.690;4.400;2022-11-24T10:52:49;21.10;;;2.20;;
21492;SDS011;10908;50.690;4.400;2022-11-24T10:55:15;18.75;;;2.15;;
21492;SDS011;10908;50.690;4.400;2022-11-24T10:57:41;15.40;;;2.08;;
21492;SDS011;10908;50.690;4.400;2022-11-24T11:02:49;16.80;;;2.33;;
21492;SDS011;10908;50.690;4.400;2022-11-24T11:05:35;14.80;;;2.30;;
21492;SDS011;10908;50.690;4.400;2022-11-24T11:08:21;11.60;;;1.75;;
21492;SDS011;10908;50.690;4.400;2022-11-24T11:11:34;12.52;;;1.88;;
21492;SDS011;10908;50.690;4.400;2022-11-24T11:16:25;18.08;;;1.77;;
21492;SDS011;10908;50.690;4.400;2022-11-24T11:18:51;15.63;;;1.85;;
21492;SDS011;10908;50.690;4.400;2022-11-24T11:21:27;21.38;;;2.03;;
21492;SDS011;10908;50.690;4.400;2022-11-24T11:23:55;10.07;;;1.95;;
21492;SDS011;10908;50.690;4.400;2022-11-24T11:29:02;16.90;;;2.10;;
21492;SDS011;10908;50.690;4.400;2022-11-24T11:31:37;18.88;;;2.25;;
21492;SDS011;10908;50.690;4.400;2022-11-24T11:36:40;18.30;;;1.92;;
21492;SDS011;10908;50.690;4.400;2022-11-24T11:42:18;11.95;;;1.92;;
21492;SDS011;10908;50.690;4.400;2022-11-24T11:45:09;15.60;;;2.35;;
21492;SDS011;10908;50.690;4.400;2022-11-24T11:50:11;21.13;;;2.58;;
21492;SDS011;10908;50.690;4.400;2022-11-24T12:04:02;12.15;;;1.80;;
21492;SDS011;10908;50.690;4.400;2022-11-24T12:09:35;18.20;;;2.13;;
21492;SDS011;10908;50.690;4.400;2022-11-24T12:20:36;20.83;;;2.50;;
21492;SDS011;10908;50.690;4.400;2022-11-24T12:43:45;16.73;;;1.88;;
21492;SDS011;10908;50.690;4.400;2022-11-24T12:52:11;19.55;;;2.70;;
21492;SDS011;10908;50.690;4.400;2022-11-24T12:54:50;9.68;;;2.22;;
21492;SDS011;10908;50.690;4.400;2022-11-24T12:57:29;12.93;;;2.30;;
21492;SDS011;10908;50.690;4.400;2022-11-24T13:06:00;15.60;;;1.85;;
21492;SDS011;10908;50.690;4.400;2022-11-24T13:08:38;18.42;;;2.72;;
21492;SDS011;10908;50.690;4.400;2022-11-24T13:14:05;19.75;;;2.90;;
21492;SDS011;10908;50.690;4.400;2022-11-24T13:19:19;14.43;;;2.50;;
21492;SDS011;10908;50.690;4.400;2022-11-24T13:21:48;19.15;;;3.08;;
21492;SDS011;10908;50.690;4.400;2022-11-24T13:24:24;15.60;;;2.45;;
21492;SDS011;10908;50.690;4.400;2022-11-24T13:29:43;17.55;;;2.53;;
21492;SDS011;10908;50.690;4.400;2022-11-24T13:42:17;15.50;;;2.42;;
21492;SDS011;10908;50.690;4.400;2022-11-24T13:44:47;19.17;;;3.00;;
21492;SDS011;10908;50.690;4.400;2022-11-24T13:47:33;16.20;;;2.53;;
21492;SDS011;10908;50.690;4.400;2022-11-24T13:50:13;17.20;;;2.40;;
21492;SDS011;10908;50.690;4.400;2022-11-24T13:55:39;15.40;;;2.50;;
21492;SDS011;10908;50.690;4.400;2022-11-24T14:03:55;17.52;;;2.83;;
21492;SDS011;10908;50.690;4.400;2022-11-24T14:06:30;14.05;;;2.20;;
21492;SDS011;10908;50.690;4.400;2022-11-24T14:11:45;17.27;;;2.13;;
21492;SDS011;10908;50.690;4.400;2022-11-24T14:14:25;16.00;;;2.17;;
21492;SDS011;10908;50.690;4.400;2022-11-24T14:17:04;21.13;;;2.55;;
21492;SDS011;10908;50.690;4.400;2022-11-24T14:19:51;22.83;;;2.88;;
21492;SDS011;10908;50.690;4.400;2022-11-24T14:24:57;23.10;;;4.03;;
21492;SDS011;10908;50.690;4.400;2022-11-24T14:27:28;14.73;;;3.42;;
21492;SDS011;10908;50.690;4.400;2022-11-24T14:29:55;19.85;;;4.05;;
21492;SDS011;10908;50.690;4.400;2022-11-24T14:32:22;31.25;;;7.85;;
21492;SDS011;10908;50.690;4.400;2022-11-24T14:34:48;20.33;;;4.00;;
21492;SDS011;10908;50.690;4.400;2022-11-24T14:37:15;17.95;;;3.40;;
21492;SDS011;10908;50.690;4.400;2022-11-24T14:39:42;17.02;;;3.05;;
21492;SDS011;10908;50.690;4.400;2022-11-24T14:42:15;18.38;;;3.72;;
21492;SDS011;10908;50.690;4.400;2022-11-24T14:44:48;20.13;;;3.38;;
21492;SDS011;10908;50.690;4.400;2022-11-24T14:47:20;14.35;;;2.60;;
21492;SDS011;10908;50.690;4.400;2022-11-24T14:49:52;18.95;;;3.40;;
21492;SDS011;10908;50.690;4.400;2022-11-24T14:52:20;19.88;;;3.33;;
21492;SDS011;10908;50.690;4.400;2022-11-24T14:54:53;19.08;;;3.58;;
21492;SDS011;10908;50.690;4.400;2022-11-24T15:00:06;25.70;;;5.53;;
21492;SDS011;10908;50.690;4.400;2022-11-24T15:08:18;17.08;;;3.47;;
21492;SDS011;10908;50.690;4.400;2022-11-24T15:10:44;16.42;;;3.03;;
21492;SDS011;10908;50.690;4.400;2022-11-24T15:13:17;26.35;;;4.15;;
21492;SDS011;10908;50.690;4.400;2022-11-24T15:15:55;16.92;;;4.00;;
21492;SDS011;10908;50.690;4.400;2022-11-24T15:18:24;17.95;;;3.30;;
21492;SDS011;10908;50.690;4.400;2022-11-24T15:20:57;20.35;;;3.70;;
21492;SDS011;10908;50.690;4.400;2022-11-24T15:23:30;22.70;;;4.22;;
21492;SDS011;10908;50.690;4.400;2022-11-24T15:25:57;19.50;;;3.33;;
21492;SDS011;10908;50.690;4.400;2022-11-24T15:28:44;19.60;;;3.50;;
21492;SDS011;10908;50.690;4.400;2022-11-24T15:31:11;14.68;;;3.20;;
21492;SDS011;10908;50.690;4.400;2022-11-24T15:33:38;23.02;;;3.67;;
21492;SDS011;10908;50.690;4.400;2022-11-24T15:36:05;23.17;;;3.78;;
21492;SDS011;10908;50.690;4.400;2022-11-24T15:38:31;18.38;;;4.43;;
21492;SDS011;10908;50.690;4.400;2022-11-24T15:40:57;18.75;;;2.95;;
21492;SDS011;10908;50.690;4.400;2022-11-24T15:56:14;15.82;;;3.33;;
21492;SDS011;10908;50.690;4.400;2022-11-24T15:59:06;18.50;;;3.60;;
21492;SDS011;10908;50.690;4.400;2022-11-24T16:01:37;17.40;;;3.20;;
21492;SDS011;10908;50.690;4.400;2022-11-24T16:04:02;13.57;;;2.80;;
21492;SDS011;10908;50.690;4.400;2022-11-24T16:06:28;17.98;;;2.47;;
21492;SDS011;10908;50.690;4.400;2022-11-24T16:08:54;17.15;;;2.92;;
21492;SDS011;10908;50.690;4.400;2022-11-24T16:11:21;21.02;;;3.03;;
21492;SDS011;10908;50.690;4.400;2022-11-24T16:13:47;17.48;;;3.28;;
21492;SDS011;10908;50.690;4.400;2022-11-24T16:16:13;17.50;;;3.30;;
21492;SDS011;10908;50.690;4.400;2022-11-24T16:18:39;19.42;;;3.38;;
21492;SDS011;10908;50.690;4.400;2022-11-24T16:21:06;19.75;;;3.47;;
21492;SDS011;10908;50.690;4.400;2022-11-24T16:23:32;13.25;;;3.75;;
21492;SDS011;10908;50.690;4.400;2022-11-24T16:25:59;18.85;;;3.55;;
21492;SDS011;10908;50.690;4.400;2022-11-24T16:28:24;28.55;;;4.38;;
21492;SDS011;10908;50.690;4.400;2022-11-24T16:30:50;21.80;;;5.20;;
21492;SDS011;10908;50.690;4.400;2022-11-24T16:33:16;23.25;;;5.60;;
21492;SDS011;10908;50.690;4.400;2022-11-24T16:35:41;28.35;;;5.65;;
21492;SDS011;10908;50.690;4.400;2022-11-24T16:38:19;25.10;;;5.88;;
21492;SDS011;10908;50.690;4.400;2022-11-24T16:40:51;19.80;;;3.90;;
21492;SDS011;10908;50.690;4.400;2022-11-24T16:43:18;22.50;;;5.78;;
21492;SDS011;10908;50.690;4.400;2022-11-24T16:45:44;21.20;;;3.55;;
21492;SDS011;10908;50.690;4.400;2022-11-24T16:48:09;20.80;;;4.35;;
21492;SDS011;10908;50.690;4.400;2022-11-24T16:50:36;19.25;;;4.18;;
21492;SDS011;10908;50.690;4.400;2022-11-24T16:53:01;19.60;;;4.30;;
21492;SDS011;10908;50.690;4.400;2022-11-24T16:55:27;20.90;;;3.95;;
21492;SDS011;10908;50.690;4.400;2022-11-24T16:57:52;17.42;;;3.90;;
21492;SDS011;10908;50.690;4.400;2022-11-24T17:00:18;13.95;;;3.30;;
21492;SDS011;10908;50.690;4.400;2022-11-24T17:02:44;19.75;;;3.33;;
21492;SDS011;10908;50.690;4.400;2022-11-24T17:05:10;20.65;;;3.72;;
21492;SDS011;10908;50.690;4.400;2022-11-24T17:07:36;15.93;;;3.00;;
21492;SDS011;10908;50.690;4.400;2022-11-24T17:10:01;24.60;;;4.38;;
21492;SDS011;10908;50.690;4.400;2022-11-24T17:12:27;18.98;;;3.63;;
21492;SDS011;10908;50.690;4.400;2022-11-24T17:14:53;24.83;;;4.40;;
21492;SDS011;10908;50.690;4.400;2022-11-24T17:17:20;26.42;;;4.80;;
21492;SDS011;10908;50.690;4.400;2022-11-24T17:19:45;20.10;;;3.88;;
21492;SDS011;10908;50.690;4.400;2022-11-24T17:22:11;17.55;;;3.80;;
21492;SDS011;10908;50.690;4.400;2022-11-24T17:24:37;18.67;;;3.30;;
21492;SDS011;10908;50.690;4.400;2022-11-24T17:27:02;17.52;;;3.70;;
21492;SDS011;10908;50.690;4.400;2022-11-24T17:29:28;20.73;;;3.10;;
21492;SDS011;10908;50.690;4.400;2022-11-24T17:31:54;15.88;;;3.20;;